createdAt,value
2018-11-12T00:02:24.519Z,66.03
2018-11-12T00:04:53.001Z,75.00
2018-11-12T00:07:21.480Z,78.05
2018-11-12T00:09:49.984Z,63.10
2018-11-12T00:12:18.486Z,71.80
2018-11-12T00:14:46.968Z,62.93
2018-11-12T00:17:15.541Z,71.83
2018-11-12T00:19:44.004Z,64.80
2018-11-12T00:22:12.512Z,60.87
2018-11-12T00:24:40.983Z,57.87
2018-11-12T00:27:09.444Z,77.37
2018-11-12T00:29:38.031Z,59.77
2018-11-12T00:32:06.848Z,74.00
2018-11-12T00:34:35.348Z,75.90
2018-11-12T00:37:03.812Z,63.50
2018-11-12T00:39:32.311Z,59.27
2018-11-12T00:42:00.780Z,57.53
2018-11-12T00:44:29.548Z,51.27
2018-11-12T00:46:58.396Z,62.00
2018-11-12T00:49:26.872Z,65.67
2018-11-12T00:51:55.351Z,54.57
2018-11-12T00:54:23.820Z,61.63
2018-11-12T00:56:52.268Z,56.90
2018-11-12T00:59:20.751Z,60.83
2018-11-12T01:01:49.225Z,65.00
2018-11-12T01:04:17.837Z,64.17
2018-11-12T01:06:46.228Z,68.13
2018-11-12T01:09:15.276Z,61.87
2018-11-12T01:11:43.700Z,49.57
2018-11-12T01:14:12.240Z,62.67
2018-11-12T01:16:40.788Z,62.70
2018-11-12T01:19:09.276Z,52.00
2018-11-12T01:21:37.768Z,65.90
2018-11-12T01:24:06.628Z,74.63
2018-11-12T01:26:35.088Z,59.37
2018-11-12T01:29:03.581Z,57.03
2018-11-12T01:31:32.075Z,57.58
2018-11-12T01:34:00.556Z,56.13
2018-11-12T01:36:29.052Z,68.27
2018-11-12T01:38:57.519Z,57.93
2018-11-12T01:41:26.009Z,65.73
2018-11-12T01:43:54.469Z,52.93
2018-11-12T01:46:22.963Z,58.00
2018-11-12T01:48:51.415Z,53.87
2018-11-12T01:51:19.915Z,51.73
2018-11-12T01:53:48.423Z,52.13
2018-11-12T01:56:16.952Z,56.67
2018-11-12T01:58:45.524Z,51.90
2018-11-12T02:01:14.295Z,52.23
2018-11-12T02:03:42.757Z,56.80
2018-11-12T02:06:11.243Z,56.77
2018-11-12T02:08:39.755Z,48.50
2018-11-12T02:11:08.200Z,59.83
2018-11-12T02:13:36.956Z,56.13
2018-11-12T02:16:08.305Z,65.27
2018-11-12T02:18:36.795Z,67.00
2018-11-12T02:21:05.965Z,66.03
2018-11-12T02:23:34.491Z,65.17
2018-11-12T02:26:02.984Z,59.83
2018-11-12T02:28:31.483Z,63.02
2018-11-12T02:30:59.968Z,80.80
2018-11-12T02:33:28.455Z,73.65
2018-11-12T02:35:56.948Z,69.30
2018-11-12T02:38:25.971Z,62.95
2018-11-12T02:40:54.442Z,61.43
2018-11-12T02:43:23.024Z,62.00
2018-11-12T02:45:51.514Z,72.73
2018-11-12T02:48:19.999Z,73.40
2018-11-12T02:50:48.499Z,87.03
2018-11-12T02:53:17.075Z,69.00
2018-11-12T02:55:45.562Z,80.63
2018-11-12T02:58:14.026Z,69.37
2018-11-12T03:00:42.541Z,78.77
2018-11-12T03:03:11.039Z,66.23
2018-11-12T03:05:39.541Z,71.80
2018-11-12T03:08:07.980Z,72.27
2018-11-12T03:10:36.493Z,73.83
2018-11-12T03:13:05.386Z,77.13
2018-11-12T03:15:33.883Z,64.27
2018-11-12T03:18:02.337Z,83.90
2018-11-12T03:20:30.943Z,84.40
2018-11-12T03:22:59.461Z,82.53
2018-11-12T03:25:27.985Z,73.30
2018-11-12T03:27:56.540Z,94.67
2018-11-12T03:30:25.025Z,71.67
2018-11-12T03:32:54.075Z,88.97
2018-11-12T03:35:22.595Z,72.73
2018-11-12T03:37:51.659Z,66.93
2018-11-12T03:40:22.622Z,70.53
2018-11-12T03:42:51.592Z,80.10
2018-11-12T03:45:24.802Z,66.65
2018-11-12T03:47:53.475Z,68.70
2018-11-12T03:50:23.460Z,88.30
2018-11-12T03:52:52.060Z,76.25
2018-11-12T03:55:21.791Z,74.73
2018-11-12T03:57:50.262Z,69.23
2018-11-12T04:00:21.229Z,68.63
2018-11-12T04:02:49.683Z,62.95
2018-11-12T04:05:18.152Z,69.60
2018-11-12T04:07:46.675Z,57.53
2018-11-12T04:10:17.943Z,79.27
2018-11-12T04:12:46.462Z,58.60
2018-11-12T04:15:16.553Z,60.63
2018-11-12T04:17:45.040Z,63.05
2018-11-12T04:20:14.920Z,58.80
2018-11-12T04:22:50.797Z,61.07
2018-11-12T04:25:19.729Z,75.10
2018-11-12T04:27:48.211Z,66.85
2018-11-12T04:30:16.837Z,68.83
2018-11-12T04:32:46.647Z,84.83
2018-11-12T04:35:15.123Z,79.17
2018-11-12T04:37:43.659Z,95.45
2018-11-12T04:40:14.751Z,95.77
2018-11-12T04:42:43.576Z,110.53
2018-11-12T04:45:13.810Z,104.23
2018-11-12T04:47:43.280Z,87.30
2018-11-12T04:50:14.207Z,96.47
2018-11-12T04:52:43.019Z,99.30
2018-11-12T04:55:15.995Z,79.72
2018-11-12T04:57:44.964Z,93.93
2018-11-12T05:00:18.008Z,81.37
2018-11-12T05:02:46.476Z,75.83
2018-11-12T05:05:16.283Z,76.07
2018-11-12T05:07:45.318Z,61.68
2018-11-12T05:10:16.352Z,71.83
2018-11-12T05:13:47.757Z,58.53
2018-11-12T05:16:16.255Z,63.10
2018-11-12T05:18:44.724Z,65.30
2018-11-12T05:21:13.201Z,64.13
2018-11-12T05:23:41.653Z,60.30
2018-11-12T05:26:10.098Z,58.20
2018-11-12T05:28:38.634Z,57.13
2018-11-12T05:31:07.119Z,45.40
2018-11-12T05:33:35.662Z,50.35
2018-11-12T05:36:04.164Z,49.73
2018-11-12T05:38:32.663Z,48.97
2018-11-12T05:41:01.162Z,44.97
2018-11-12T05:43:29.604Z,56.67
2018-11-12T05:45:58.104Z,54.18
2018-11-12T05:48:26.828Z,53.23
2018-11-12T05:50:55.297Z,45.77
2018-11-12T05:53:23.767Z,51.37
2018-11-12T05:55:52.301Z,67.87
2018-11-12T05:58:20.784Z,63.07
2018-11-12T06:00:49.319Z,67.17
2018-11-12T06:03:17.788Z,75.37
2018-11-12T06:05:46.284Z,60.05
2018-11-12T06:08:14.739Z,65.57
2018-11-12T06:10:43.284Z,69.93
2018-11-12T06:13:11.762Z,59.20
2018-11-12T06:15:40.236Z,67.90
2018-11-12T06:18:08.745Z,74.67
2018-11-12T06:20:37.243Z,67.90
2018-11-12T06:23:06.071Z,57.63
2018-11-12T06:25:35.698Z,82.10
2018-11-12T06:28:04.408Z,65.80
2018-11-12T06:30:34.307Z,59.33
2018-11-12T06:33:02.885Z,65.30
2018-11-12T06:35:31.426Z,68.93
2018-11-12T06:38:00.140Z,60.08
2018-11-12T06:40:29.198Z,75.13
2018-11-12T06:42:57.735Z,57.55
2018-11-12T06:45:28.598Z,86.70
2018-11-12T06:47:58.121Z,60.03
2018-11-12T06:50:27.912Z,68.40
2018-11-12T06:52:56.838Z,120.03
2018-11-12T06:55:25.330Z,72.50
2018-11-12T06:57:54.952Z,58.95
2018-11-12T07:00:30.552Z,61.30
2018-11-12T07:02:59.039Z,61.33
2018-11-12T07:05:27.974Z,70.00
2018-11-12T07:07:56.445Z,70.73
2018-11-12T07:10:26.239Z,62.73
2018-11-12T07:12:55.409Z,71.70
2018-11-12T07:15:25.452Z,63.53
2018-11-12T07:17:53.980Z,57.87
2018-11-12T07:20:24.000Z,57.77
2018-11-12T07:22:52.933Z,61.17
2018-11-12T07:25:23.430Z,71.10
2018-11-12T07:27:51.867Z,66.43
2018-11-12T07:30:23.206Z,61.00
2018-11-12T07:32:52.724Z,70.07
2018-11-12T07:35:21.717Z,63.23
2018-11-12T07:37:51.565Z,64.97
2018-11-12T07:40:20.567Z,72.20
2018-11-12T07:42:49.108Z,68.47
2018-11-12T07:45:18.930Z,65.70
2018-11-12T07:47:48.436Z,72.53
2018-11-12T07:50:20.297Z,75.00
2018-11-12T07:52:48.792Z,69.33
2018-11-12T07:55:19.292Z,68.55
2018-11-12T07:57:49.300Z,76.10
2018-11-12T08:00:22.104Z,73.57
2018-11-12T08:02:51.841Z,69.13
2018-11-12T08:05:20.340Z,68.57
2018-11-12T08:07:49.056Z,68.47
2018-11-12T08:10:18.735Z,61.33
2018-11-12T08:12:47.955Z,66.17
2018-11-12T08:15:18.016Z,73.60
2018-11-12T08:17:46.716Z,55.93
2018-11-12T08:20:18.632Z,54.93
2018-11-12T08:22:48.485Z,72.70
2018-11-12T08:25:16.970Z,66.50
2018-11-12T08:27:45.907Z,67.33
2018-11-12T08:30:23.545Z,72.40
2018-11-12T08:32:53.814Z,67.58
2018-11-12T08:35:22.320Z,73.83
2018-11-12T08:37:51.536Z,74.27
2018-11-12T08:40:22.229Z,68.35
2018-11-12T08:42:50.714Z,67.23
2018-11-12T08:45:19.204Z,81.27
2018-11-12T08:47:49.342Z,67.40
2018-11-12T08:50:19.254Z,62.10
2018-11-12T08:52:48.878Z,76.07
2018-11-12T08:55:19.713Z,57.87
2018-11-12T08:57:49.667Z,73.80
2018-11-12T09:00:19.236Z,66.23
2018-11-12T09:02:48.099Z,61.90
2018-11-12T09:05:17.634Z,66.07
2018-11-12T09:07:47.679Z,60.00
2018-11-12T09:13:48.889Z,58.97
2018-11-12T09:16:17.480Z,60.73
2018-11-12T09:18:46.088Z,69.93
2018-11-12T09:21:14.795Z,65.10
2018-11-12T09:23:43.296Z,59.97
2018-11-12T09:26:11.783Z,82.50
2018-11-12T09:28:40.295Z,74.20
2018-11-12T09:31:09.887Z,62.83
2018-11-12T09:33:37.371Z,74.33
2018-11-12T09:36:05.962Z,43.80
2018-11-12T09:38:34.505Z,57.83
2018-11-12T09:41:02.972Z,58.80
2018-11-12T09:43:31.436Z,56.63
2018-11-12T09:46:00.010Z,54.73
2018-11-12T09:48:28.428Z,51.60
2018-11-12T09:50:56.964Z,59.77
2018-11-12T09:53:25.706Z,45.93
2018-11-12T09:55:54.183Z,59.97
2018-11-12T09:58:22.673Z,51.90
2018-11-12T10:00:51.446Z,53.33
2018-11-12T10:03:27.761Z,53.37
2018-11-12T10:05:58.483Z,53.77
2018-11-12T10:08:29.190Z,55.23
2018-11-12T10:10:59.196Z,81.57
2018-11-12T10:13:28.178Z,57.90
2018-11-12T10:15:58.023Z,62.77
2018-11-12T10:18:24.120Z,54.83
2018-11-12T10:20:52.582Z,51.40
2018-11-12T10:23:21.835Z,49.47
2018-11-12T10:25:50.539Z,57.57
2018-11-12T10:28:20.439Z,56.63
2018-11-12T10:30:49.361Z,59.93
2018-11-12T10:33:18.767Z,63.75
2018-11-12T10:35:47.535Z,53.23
2018-11-12T10:38:16.969Z,49.65
2018-11-12T10:40:45.590Z,49.07
2018-11-12T10:43:14.035Z,45.00
2018-11-12T10:45:42.528Z,64.57
2018-11-12T10:48:11.311Z,43.02
2018-11-12T10:50:40.147Z,39.05
2018-11-12T10:53:08.667Z,54.37
2018-11-12T10:55:37.290Z,58.63
2018-11-12T10:58:06.249Z,47.17
2018-11-12T11:00:40.377Z,58.43
2018-11-12T11:03:50.293Z,50.92
2018-11-12T11:06:18.807Z,49.30
2018-11-12T11:08:47.275Z,45.17
2018-11-12T11:11:15.795Z,63.50
2018-11-12T11:13:44.331Z,55.20
2018-11-12T11:16:12.816Z,56.30
2018-11-12T11:18:41.321Z,57.53
2018-11-12T11:21:09.807Z,50.93
2018-11-12T11:23:38.245Z,54.90
2018-11-12T11:26:06.776Z,59.07
2018-11-12T11:28:35.235Z,67.10
2018-11-12T11:31:03.818Z,43.53
2018-11-12T11:33:32.528Z,55.52
2018-11-12T11:36:00.997Z,57.83
2018-11-12T11:38:29.735Z,58.63
2018-11-12T11:40:58.451Z,51.10
2018-11-12T11:43:26.952Z,51.50
2018-11-12T11:45:55.951Z,57.50
2018-11-12T11:48:24.784Z,51.13
2018-11-12T11:50:53.353Z,59.97
2018-11-12T11:53:21.745Z,60.20
2018-11-12T11:55:50.541Z,69.97
2018-11-12T11:58:19.047Z,62.17
2018-11-12T12:00:47.902Z,59.33
2018-11-12T12:03:16.389Z,58.73
2018-11-12T12:05:45.188Z,51.33
2018-11-12T12:08:13.693Z,60.60
2018-11-12T12:11:45.452Z,66.77
2018-11-12T12:14:13.897Z,66.80
2018-11-12T12:16:42.439Z,66.95
2018-11-12T12:19:10.958Z,61.23
2018-11-12T12:21:40.471Z,49.40
2018-11-12T12:24:08.951Z,61.10
2018-11-12T12:26:37.642Z,61.50
2018-11-12T12:29:06.539Z,73.33
2018-11-12T12:31:35.363Z,77.40
2018-11-12T12:34:04.094Z,62.57
2018-11-12T12:36:32.771Z,62.60
2018-11-12T12:39:01.295Z,62.50
2018-11-12T12:41:29.751Z,52.97
2018-11-12T12:43:58.204Z,58.37
2018-11-12T12:46:26.716Z,54.25
2018-11-12T12:48:55.230Z,42.40
2018-11-12T12:51:23.725Z,45.83
2018-11-12T12:53:52.477Z,57.53
2018-11-12T12:56:20.934Z,44.63
2018-11-12T12:58:49.842Z,43.40
2018-11-12T13:01:18.308Z,50.67
2018-11-12T13:03:46.891Z,55.53
2018-11-12T13:06:15.416Z,51.13
2018-11-12T13:08:44.104Z,50.60
2018-11-12T13:11:12.644Z,75.73
2018-11-12T13:13:41.144Z,48.50
2018-11-12T13:16:10.063Z,43.23
2018-11-12T13:18:38.535Z,49.30
2018-11-12T13:21:07.150Z,62.17
2018-11-12T13:23:36.428Z,42.60
2018-11-12T13:26:04.955Z,39.83
2018-11-12T13:28:33.471Z,41.02
2018-11-12T13:31:01.964Z,58.00
2018-11-12T13:33:30.533Z,49.17
2018-11-12T13:35:59.101Z,41.97
2018-11-12T13:38:27.635Z,44.70
2018-11-12T13:40:56.115Z,46.07
2018-11-12T13:43:24.583Z,35.75
2018-11-12T13:45:53.070Z,40.43
2018-11-12T13:48:21.607Z,41.43
2018-11-12T13:50:50.062Z,42.27
2018-11-12T13:53:18.565Z,39.60
2018-11-12T13:55:47.045Z,42.30
2018-11-12T13:58:15.511Z,39.87
2018-11-12T14:00:44.009Z,41.97
2018-11-12T14:03:12.484Z,42.67
2018-11-12T14:05:41.228Z,42.70
2018-11-12T14:08:09.903Z,48.87
2018-11-12T14:10:38.383Z,43.33
2018-11-12T14:13:06.863Z,46.07
2018-11-12T14:15:41.953Z,49.70
2018-11-12T14:18:10.491Z,45.20
2018-11-12T14:20:39.153Z,46.20
2018-11-12T14:23:07.469Z,51.20
2018-11-12T14:25:35.975Z,52.10
2018-11-12T14:28:04.509Z,46.20
2018-11-12T14:30:33.013Z,47.03
2018-11-12T14:33:01.520Z,58.87
2018-11-12T14:35:30.445Z,61.97
2018-11-12T14:37:59.203Z,46.73
2018-11-12T14:40:27.692Z,55.33
2018-11-12T14:42:56.240Z,47.53
2018-11-12T14:45:24.841Z,45.93
2018-11-12T14:47:53.271Z,50.90
2018-11-12T14:50:22.113Z,54.57
2018-11-12T14:52:50.619Z,47.30
2018-11-12T14:55:19.452Z,45.37
2018-11-12T14:57:47.944Z,54.17
2018-11-12T15:00:19.079Z,48.77
2018-11-12T15:02:48.836Z,48.97
2018-11-12T15:05:18.560Z,44.23
2018-11-12T15:07:47.955Z,54.30
2018-11-12T15:10:16.483Z,54.73
2018-11-12T15:12:45.863Z,51.67
2018-11-12T15:15:14.906Z,38.57
2018-11-12T15:17:43.751Z,46.57
2018-11-12T15:20:15.145Z,49.20
2018-11-12T15:22:44.112Z,44.07
2018-11-12T15:25:14.999Z,55.47
2018-11-12T15:27:43.950Z,55.37
2018-11-12T15:30:14.997Z,45.92
2018-11-12T15:32:44.312Z,59.87
2018-11-12T15:35:13.561Z,60.37
2018-11-12T15:37:42.899Z,57.53
2018-11-12T15:40:12.379Z,68.97
2018-11-12T15:42:44.069Z,51.70
2018-11-12T15:45:18.174Z,60.17
2018-11-12T15:47:48.591Z,45.50
2018-11-12T15:50:29.506Z,62.13
2018-11-12T15:53:01.124Z,59.88
2018-11-12T15:55:31.936Z,45.80
2018-11-12T15:58:03.591Z,59.18
2018-11-12T16:00:33.837Z,62.30
2018-11-12T16:03:05.254Z,51.47
2018-11-12T16:05:35.776Z,62.30
2018-11-12T16:08:04.513Z,55.50
2018-11-12T16:10:33.038Z,49.83
2018-11-12T16:13:01.755Z,71.27
2018-11-12T16:15:30.447Z,66.47
2018-11-12T16:17:59.224Z,58.63
2018-11-12T16:20:29.347Z,75.83
2018-11-12T16:22:58.937Z,60.67
2018-11-12T16:25:28.305Z,61.90
2018-11-12T16:27:57.219Z,61.75
2018-11-12T16:30:25.726Z,59.67
2018-11-12T16:32:54.397Z,55.37
2018-11-12T16:35:24.190Z,61.13
2018-11-12T16:37:54.044Z,61.43
2018-11-12T16:40:22.571Z,63.33
2018-11-12T16:42:51.512Z,68.90
2018-11-12T16:45:19.979Z,52.40
2018-11-12T16:47:48.760Z,59.27
2018-11-12T16:50:17.786Z,63.73
2018-11-12T16:52:46.580Z,59.37
2018-11-12T16:55:17.451Z,57.65
2018-11-12T16:57:46.104Z,61.43
2018-11-12T17:01:17.573Z,51.63
2018-11-12T17:03:46.222Z,58.13
2018-11-12T17:06:14.707Z,59.67
2018-11-12T17:08:43.193Z,52.75
2018-11-12T17:11:11.723Z,47.93
2018-11-12T17:13:40.232Z,52.50
2018-11-12T17:16:08.699Z,58.13
2018-11-12T17:18:37.205Z,61.05
2018-11-12T17:21:05.997Z,55.23
2018-11-12T17:23:34.548Z,52.73
2018-11-12T17:26:03.370Z,54.93
2018-11-12T17:28:31.935Z,51.83
2018-11-12T17:31:00.566Z,59.10
2018-11-12T17:33:29.035Z,54.27
2018-11-12T17:35:57.521Z,48.93
2018-11-12T17:38:26.030Z,57.70
2018-11-12T17:40:54.754Z,54.33
2018-11-12T17:43:23.555Z,67.63
2018-11-12T17:45:51.996Z,65.27
2018-11-12T17:48:20.540Z,57.83
2018-11-12T17:50:49.008Z,52.35
2018-11-12T17:53:17.723Z,57.05
2018-11-12T17:55:46.396Z,66.47
2018-11-12T17:58:14.928Z,51.02
2018-11-12T18:00:43.646Z,54.17
2018-11-12T18:03:12.139Z,59.85
2018-11-12T18:05:40.612Z,52.60
2018-11-12T18:08:09.263Z,45.83
2018-11-12T18:10:37.556Z,46.97
2018-11-12T18:13:06.936Z,53.33
2018-11-12T18:15:35.452Z,67.53
2018-11-12T18:18:03.921Z,54.47
2018-11-12T18:20:32.676Z,56.73
2018-11-12T18:23:01.232Z,49.30
2018-11-12T18:25:29.880Z,54.67
2018-11-12T18:27:58.388Z,57.97
2018-11-12T18:30:28.601Z,53.67
2018-11-12T18:32:58.243Z,51.35
2018-11-12T18:35:26.981Z,58.03
2018-11-12T18:37:55.740Z,56.47
2018-11-12T18:40:25.632Z,66.07
2018-11-12T18:42:54.172Z,43.05
2018-11-12T18:45:23.892Z,70.00
2018-11-12T18:47:53.012Z,60.70
2018-11-12T18:50:23.463Z,44.08
2018-11-12T18:52:52.234Z,63.83
2018-11-12T18:55:20.687Z,49.23
2018-11-12T18:57:49.802Z,56.93
2018-11-12T19:00:19.637Z,55.60
2018-11-12T19:02:48.523Z,82.30
2018-11-12T19:05:18.938Z,70.80
2018-11-12T19:07:49.214Z,63.50
2018-11-12T19:10:19.222Z,67.27
2018-11-12T19:12:48.283Z,69.30
2018-11-12T19:15:19.323Z,62.30
2018-11-12T19:17:54.089Z,67.20
2018-11-12T19:20:22.702Z,61.77
2018-11-12T19:22:51.254Z,68.20
2018-11-12T19:25:19.749Z,62.57
2018-11-12T19:27:48.223Z,65.77
2018-11-12T19:30:21.383Z,63.40
2018-11-12T19:32:49.882Z,61.43
2018-11-12T19:35:20.140Z,62.40
2018-11-12T19:37:48.642Z,66.70
2018-11-12T19:40:18.703Z,58.50
2018-11-12T19:42:48.376Z,66.03
2018-11-12T19:45:17.040Z,76.37
2018-11-12T19:47:46.495Z,83.40
2018-11-12T19:50:17.493Z,67.73
2018-11-12T19:52:47.103Z,86.10
2018-11-12T19:55:15.828Z,70.42
2018-11-12T19:57:45.040Z,77.60
2018-11-12T20:00:15.011Z,69.97
2018-11-12T20:02:44.613Z,65.00
2018-11-12T20:05:13.131Z,80.13
2018-11-12T20:07:42.298Z,83.50
2018-11-12T20:10:12.874Z,81.70
2018-11-12T20:12:41.849Z,90.83
2018-11-12T20:15:11.763Z,82.17
2018-11-12T20:17:41.058Z,69.63
2018-11-12T20:20:14.282Z,80.33
2018-11-12T20:22:43.309Z,71.60
2018-11-12T20:25:13.327Z,77.47
2018-11-12T20:27:42.264Z,78.80
2018-11-12T20:30:15.883Z,91.27
2018-11-12T20:32:44.862Z,83.63
2018-11-12T20:35:13.323Z,84.37
2018-11-12T20:37:41.894Z,95.30
2018-11-12T20:40:11.455Z,79.90
2018-11-12T20:42:40.466Z,74.70
2018-11-12T20:45:10.416Z,94.80
2018-11-12T20:47:39.647Z,85.85
2018-11-12T20:50:09.412Z,92.93
2018-11-12T20:52:38.372Z,90.23
2018-11-12T20:55:08.620Z,90.97
2018-11-12T20:57:37.771Z,94.07
2018-11-12T21:00:10.414Z,90.23
2018-11-12T21:02:39.744Z,105.13
2018-11-12T21:05:09.191Z,89.43
2018-11-12T21:07:38.181Z,93.60
2018-11-12T21:10:07.869Z,93.33
2018-11-12T21:12:36.488Z,95.40
2018-11-12T21:15:05.581Z,88.90
2018-11-12T21:17:34.278Z,105.50
2018-11-12T21:20:02.793Z,92.30
2018-11-12T21:22:31.296Z,104.80
2018-11-12T21:25:00.546Z,101.77
2018-11-12T21:27:29.197Z,98.40
2018-11-12T21:29:58.051Z,95.33
2018-11-12T21:32:26.928Z,126.73
2018-11-12T21:34:55.440Z,126.03
2018-11-12T21:37:23.956Z,122.03
2018-11-12T21:39:52.442Z,109.50
2018-11-12T21:42:21.310Z,112.33
2018-11-12T21:44:49.772Z,120.77
2018-11-12T21:47:18.311Z,112.90
2018-11-12T21:49:46.820Z,118.47
2018-11-12T21:52:15.277Z,105.57
2018-11-12T21:54:43.891Z,131.97
2018-11-12T21:57:12.406Z,98.62
2018-11-12T21:59:40.931Z,114.47
2018-11-12T22:02:09.748Z,105.40
2018-11-12T22:04:38.272Z,106.07
2018-11-12T22:07:07.254Z,103.03
2018-11-12T22:09:35.764Z,103.20
2018-11-12T22:12:04.499Z,109.47
2018-11-12T22:14:33.715Z,107.40
2018-11-12T22:17:02.522Z,119.40
2018-11-12T22:19:31.086Z,105.87
2018-11-12T22:21:59.496Z,80.77
2018-11-12T22:24:27.976Z,51.13
2018-11-12T22:26:56.879Z,44.67
2018-11-12T22:29:25.412Z,44.27
2018-11-12T22:31:53.993Z,34.73
2018-11-12T22:34:22.468Z,43.60
2018-11-12T22:36:50.875Z,47.33
2018-11-12T22:39:19.396Z,39.47
2018-11-12T22:41:47.879Z,35.90
2018-11-12T22:44:16.750Z,48.57
2018-11-12T22:46:45.227Z,39.17
2018-11-12T22:49:13.756Z,44.53
2018-11-12T22:51:42.271Z,46.70
2018-11-12T22:54:10.826Z,44.60
2018-11-12T22:56:39.243Z,55.90
2018-11-12T22:59:07.756Z,41.97
2018-11-12T23:01:36.211Z,46.00
2018-11-12T23:04:04.744Z,51.80
2018-11-12T23:06:33.259Z,52.43
2018-11-12T23:09:01.854Z,75.23
2018-11-12T23:11:30.392Z,75.17
2018-11-12T23:13:58.854Z,74.23
2018-11-12T23:16:27.648Z,65.00
2018-11-12T23:18:56.202Z,55.67
2018-11-12T23:21:24.742Z,69.50
2018-11-12T23:23:53.557Z,72.50
2018-11-12T23:26:22.075Z,77.17
2018-11-12T23:28:50.582Z,86.53
2018-11-12T23:31:19.113Z,76.67
2018-11-12T23:33:47.843Z,81.13
2018-11-12T23:36:16.339Z,68.20
2018-11-12T23:38:44.903Z,64.87
2018-11-12T23:41:13.383Z,80.90
2018-11-12T23:43:41.909Z,65.17
2018-11-12T23:46:10.347Z,58.20
2018-11-12T23:48:38.852Z,61.00
2018-11-12T23:51:08.034Z,55.77
2018-11-12T23:53:36.502Z,60.12
2018-11-12T23:56:04.983Z,75.53
2018-11-12T23:58:33.641Z,69.30
